Time;durP1;ratioP1;P1;durP2;ratioP2;P2;SDS_P1;SDS_P2;PMS_P1;PMS_P2;Temp;Humidity;BMP_temperature;BMP_pressure;BME280_temperature;BME280_humidity;BME280_pressure;Samples;Min_cycle;Max_cycle;Signal;HPM_P1;HPM_P2
2022/04/18 00:01:46;;;;;;;14.77;12.32;;;;;;;7.25;71.17;162460.22;5030355;28;20068;-56
2022/04/18 00:04:11;;;;;;;19.30;13.20;;;;;;;7.16;71.83;162437.31;5031489;28;20489;-55
2022/04/18 00:06:36;;;;;;;19.38;13.50;;;;;;;7.11;70.71;162423.88;5030510;28;20049;-55
2022/04/18 00:09:03;;;;;;;21.23;13.35;;;;;;;7.10;71.67;162422.50;5032041;28;20021;-56
2022/04/18 00:11:29;;;;;;;22.35;14.65;;;;;;;7.03;71.22;162402.31;5030044;28;20584;-58
2022/04/18 00:13:54;;;;;;;17.27;14.02;;;;;;;7.07;71.57;162414.44;5031880;28;20025;-56
2022/04/18 00:16:19;;;;;;;19.67;15.15;;;;;;;7.03;71.03;162403.66;5030186;28;20041;-57
2022/04/18 00:18:44;;;;;;;26.70;16.45;;;;;;;6.95;71.89;162383.47;5031675;28;20017;-56
2022/04/18 00:21:10;;;;;;;18.90;14.98;;;;;;;6.87;72.25;162361.91;5029848;28;20049;-56
2022/04/18 00:23:36;;;;;;;18.80;13.77;;;;;;;6.80;72.25;162343.06;5031527;28;20028;-57
2022/04/18 00:26:01;;;;;;;20.80;14.63;;;;;;;6.75;73.40;162329.56;5029898;28;20049;-56
2022/04/18 00:28:27;;;;;;;22.67;14.40;;;;;;;6.66;73.24;162306.69;5031224;28;20413;-57
2022/04/18 00:30:53;;;;;;;21.35;14.38;;;;;;;6.55;74.21;162277.09;5029987;28;20038;-57
2022/04/18 00:33:18;;;;;;;21.98;16.70;;;;;;;6.46;74.19;162255.56;5028857;28;20045;-57
2022/04/18 00:35:43;;;;;;;23.02;17.05;;;;;;;6.38;74.37;162232.63;5031222;28;20053;-56
2022/04/18 00:38:09;;;;;;;20.73;14.65;;;;;;;6.32;74.22;162219.19;5030075;28;20033;-56
2022/04/18 00:40:34;;;;;;;22.38;14.77;;;;;;;6.33;75.10;162221.91;5030958;28;20026;-56
2022/04/18 00:43:04;;;;;;;22.38;15.45;;;;;;;6.30;76.61;162213.78;5029956;28;20042;-56
2022/04/18 00:45:29;;;;;;;24.20;16.38;;;;;;;6.17;76.43;162180.19;5031378;28;20009;-56
2022/04/18 00:47:55;;;;;;;26.05;18.70;;;;;;;6.15;75.67;162174.78;5029545;28;20044;-57
2022/04/18 00:50:21;;;;;;;25.38;15.60;;;;;;;6.13;75.98;162168.06;5031137;28;20037;-56
2022/04/18 00:52:47;;;;;;;22.98;18.08;;;;;;;6.13;76.93;162168.06;5029736;28;20029;-56
2022/04/18 00:55:13;;;;;;;23.30;16.58;;;;;;;6.11;76.44;162164.00;5031121;28;20485;-56
2022/04/18 00:57:39;;;;;;;37.03;20.67;;;;;;;6.10;76.56;162159.97;5028677;28;20045;-56
2022/04/18 01:00:06;;;;;;;26.40;20.10;;;;;;;6.07;76.10;162153.25;5030916;28;20556;-57
2022/04/18 01:02:32;;;;;;;28.10;18.63;;;;;;;5.99;77.10;162133.09;5019396;28;20049;-57
2022/04/18 01:04:57;;;;;;;25.13;16.42;;;;;;;5.91;77.53;162111.50;5010894;28;20068;-57
2022/04/18 01:07:23;;;;;;;24.38;16.98;;;;;;;5.80;78.83;162083.25;5009837;28;20041;-57
2022/04/18 01:09:48;;;;;;;25.13;16.65;;;;;;;5.64;80.35;162041.50;5011544;28;20030;-56
2022/04/18 01:12:13;;;;;;;25.65;18.23;;;;;;;5.62;80.14;162034.78;5009756;28;20042;-57
2022/04/18 01:14:46;;;;;;;22.63;15.98;;;;;;;5.54;81.18;162014.63;5010958;28;20018;-57
2022/04/18 01:17:12;;;;;;;25.20;16.73;;;;;;;5.45;80.38;161990.41;5009968;28;20128;-56
2022/04/18 01:19:37;;;;;;;22.35;17.80;;;;;;;5.49;81.07;162002.50;5010300;28;20110;-56
2022/04/18 01:22:02;;;;;;;26.73;18.48;;;;;;;5.44;82.75;161987.69;5009620;28;20042;-56
2022/04/18 01:29:59;;;;;;;23.23;16.77;;;;;;;5.47;80.43;161995.78;5010982;28;20040;-57
2022/04/18 01:32:24;;;;;;;27.20;19.55;;;;;;;5.49;81.26;162002.50;5009413;28;20046;-57
2022/04/18 01:34:50;;;;;;;25.15;18.65;;;;;;;5.54;80.83;162014.63;5011107;28;20033;-56
2022/04/18 01:37:15;;;;;;;23.52;15.35;;;;;;;5.58;80.00;162025.38;5012564;28;20497;-57
2022/04/18 01:39:41;;;;;;;23.77;15.90;;;;;;;5.64;79.37;162041.50;5014875;28;20076;-57
2022/04/18 01:42:06;;;;;;;21.17;15.57;;;;;;;5.65;79.30;162044.19;5013409;28;20038;-57
2022/04/18 01:44:31;;;;;;;25.00;16.30;;;;;;;5.63;79.67;162038.81;5014634;28;20025;-54
2022/04/18 01:46:57;;;;;;;29.02;20.23;;;;;;;5.55;80.35;162017.28;5013419;28;20042;-56
2022/04/18 01:49:23;;;;;;;34.05;19.70;;;;;;;5.48;80.82;161998.44;5014084;28;20041;-57
2022/04/18 01:51:48;;;;;;;27.17;18.60;;;;;;;5.37;81.80;161971.56;5013154;28;20540;-57
2022/04/18 01:54:13;;;;;;;25.48;17.77;;;;;;;5.28;84.78;161946.00;5015030;28;20029;-57
2022/04/18 01:56:39;;;;;;;25.73;19.00;;;;;;;5.12;85.79;161904.28;5012489;28;20018;-54
2022/04/18 01:59:04;;;;;;;21.52;15.95;;;;;;;4.93;89.30;161855.91;5014869;28;20030;-57
2022/04/18 02:01:31;;;;;;;21.30;15.65;;;;;;;4.76;93.07;161812.84;5012730;28;20064;-57
2022/04/18 02:03:56;;;;;;;22.38;15.07;;;;;;;4.57;97.35;161761.78;5014021;28;20021;-56
2022/04/18 02:06:21;;;;;;;29.20;17.50;;;;;;;4.44;100.00;161728.16;5013079;28;20018;-55
2022/04/18 02:08:47;;;;;;;31.02;16.88;;;;;;;4.31;100.00;161694.53;5014937;28;20026;-57
2022/04/18 02:11:12;;;;;;;26.50;19.73;;;;;;;4.19;100.00;161662.31;5014189;28;20386;-58
2022/04/18 02:13:38;;;;;;;28.98;17.75;;;;;;;4.08;100.00;161635.41;5012703;28;20048;-58
2022/04/18 02:16:04;;;;;;;24.67;17.08;;;;;;;3.99;100.00;161611.19;5014252;28;20021;-59
2022/04/18 02:18:29;;;;;;;23.85;16.60;;;;;;;3.91;100.00;161591.06;5012471;28;20072;-56
2022/04/18 02:20:55;;;;;;;23.35;17.80;;;;;;;3.81;100.00;161564.16;5014154;28;20030;-56
2022/04/18 02:23:20;;;;;;;26.95;18.23;;;;;;;3.70;100.00;161535.94;5012588;28;20046;-59
2022/04/18 02:25:46;;;;;;;22.58;16.73;;;;;;;3.62;100.00;161514.44;5013588;28;20030;-58
2022/04/18 02:28:11;;;;;;;23.95;16.90;;;;;;;3.49;100.00;161482.22;5012838;28;20038;-59
2022/04/18 02:30:36;;;;;;;26.02;18.77;;;;;;;3.41;100.00;161459.41;5012496;28;20030;-58
2022/04/18 02:33:02;;;;;;;25.33;17.55;;;;;;;3.36;100.00;161445.94;5013781;28;20040;-58
2022/04/18 02:35:27;;;;;;;24.30;18.23;;;;;;;3.30;100.00;161432.50;5014011;28;20026;-58
2022/04/18 02:37:53;;;;;;;22.67;17.15;;;;;;;3.31;100.00;161433.88;5012287;28;20095;-59
2022/04/18 02:40:19;;;;;;;24.98;17.52;;;;;;;3.25;100.00;161417.72;5012986;28;20030;-58
2022/04/18 02:42:45;;;;;;;25.85;17.77;;;;;;;3.14;100.00;161390.88;5012550;28;20432;-58
2022/04/18 02:45:14;;;;;;;22.00;17.25;;;;;;;3.05;100.00;161366.72;5014073;28;20025;-58
2022/04/18 02:47:39;;;;;;;23.30;17.27;;;;;;;3.00;100.00;161354.59;5010725;28;20092;-58
2022/04/18 02:50:06;;;;;;;30.08;21.10;;;;;;;2.90;100.00;161326.41;5013557;28;20034;-59
2022/04/18 02:52:32;;;;;;;26.05;19.33;;;;;;;2.81;100.00;161304.91;5011961;28;20045;-58
2022/04/18 02:54:57;;;;;;;25.52;18.60;;;;;;;2.77;100.00;161294.19;5013353;28;20432;-58
2022/04/18 02:57:22;;;;;;;24.20;19.13;;;;;;;2.74;100.00;161286.13;5012211;28;20064;-58
2022/04/18 02:59:48;;;;;;;32.35;19.38;;;;;;;2.72;100.00;161280.75;5013434;28;20026;-58
2022/04/18 03:02:13;;;;;;;24.77;17.65;;;;;;;2.65;100.00;161261.94;5012003;28;20042;-59
2022/04/18 03:04:38;;;;;;;26.92;18.30;;;;;;;2.63;100.00;161257.94;5013713;28;20109;-59
2022/04/18 03:07:04;;;;;;;31.35;22.17;;;;;;;2.60;100.00;161248.53;5011956;28;20497;-59
2022/04/18 03:09:29;;;;;;;30.63;18.25;;;;;;;2.54;100.00;161235.13;5013176;28;20487;-59
2022/04/18 03:11:56;;;;;;;30.95;20.20;;;;;;;2.51;100.00;161227.03;5011710;28;20042;-59
2022/04/18 03:14:22;;;;;;;24.80;18.15;;;;;;;2.53;100.00;161232.44;5013377;28;20030;-59
2022/04/18 03:16:47;;;;;;;24.92;17.15;;;;;;;2.52;100.00;161228.41;5011530;28;20561;-59
2022/04/18 03:19:13;;;;;;;23.35;16.58;;;;;;;2.48;100.00;161217.66;5013012;28;20025;-59
2022/04/18 03:21:38;;;;;;;29.27;20.35;;;;;;;2.44;100.00;161208.25;5011421;28;20042;-59
2022/04/18 03:24:04;;;;;;;23.00;18.65;;;;;;;2.38;100.00;161192.16;5013235;28;20370;-59
2022/04/18 03:26:29;;;;;;;25.45;17.02;;;;;;;2.31;100.00;161173.34;5011644;28;20041;-59
2022/04/18 03:28:55;;;;;;;22.80;17.48;;;;;;;2.28;100.00;161166.66;5013289;28;20377;-59
2022/04/18 03:31:20;;;;;;;30.08;19.80;;;;;;;2.27;100.00;161162.66;5011165;28;20064;-59
2022/04/18 03:33:45;;;;;;;36.38;24.40;;;;;;;2.20;100.00;161145.19;5012847;28;20026;-59
2022/04/18 03:41:39;;;;;;;30.15;22.48;;;;;;;2.02;100.00;161098.19;5010913;28;20064;-58
2022/04/18 03:44:04;;;;;;;31.30;18.90;;;;;;;1.99;100.00;161091.50;5012571;28;20065;-59
2022/04/18 03:46:29;;;;;;;28.42;21.33;;;;;;;1.98;100.00;161087.44;5010957;28;20100;-59
2022/04/18 03:48:55;;;;;;;32.90;22.48;;;;;;;1.97;100.00;161086.13;5010973;28;20033;-58
2022/04/18 03:51:20;;;;;;;28.40;19.45;;;;;;;1.97;100.00;161084.81;5011045;28;20876;-58
2022/04/18 03:53:45;;;;;;;26.83;18.85;;;;;;;1.94;100.00;161078.03;5012682;28;20037;-58
2022/04/18 03:56:11;;;;;;;27.77;20.63;;;;;;;1.93;100.00;161074.03;5011094;28;20049;-58
2022/04/18 03:58:36;;;;;;;27.65;18.77;;;;;;;1.94;100.00;161076.72;5012280;28;20033;-58
2022/04/18 04:01:01;;;;;;;30.90;21.80;;;;;;;1.89;100.00;161066.00;5010579;28;20096;-58
2022/04/18 04:03:27;;;;;;;30.30;19.23;;;;;;;1.90;100.00;161068.66;5011872;28;20436;-58
2022/04/18 04:05:53;;;;;;;29.02;21.08;;;;;;;1.87;100.00;161060.63;5011096;28;20021;-58
2022/04/18 04:08:22;;;;;;;37.63;23.08;;;;;;;1.83;100.00;161049.88;5012098;28;20041;-57
2022/04/18 04:10:49;;;;;;;35.90;23.55;;;;;;;1.77;100.00;161033.78;5011155;28;20026;-57
2022/04/18 04:13:14;;;;;;;37.72;22.70;;;;;;;1.70;100.00;161015.00;5012308;28;20018;-56
2022/04/18 04:15:40;;;;;;;31.70;22.30;;;;;;;1.63;100.00;160996.22;5010076;28;20496;-57
2022/04/18 04:18:05;;;;;;;39.47;26.27;;;;;;;1.58;100.00;160984.13;5011693;28;20034;-56
2022/04/18 04:20:30;;;;;;;34.10;22.85;;;;;;;1.53;100.00;160972.03;5012122;28;20029;-57
2022/04/18 04:22:56;;;;;;;35.90;21.52;;;;;;;1.47;100.00;160954.63;5010758;28;20041;-55
2022/04/18 04:25:21;;;;;;;28.75;19.13;;;;;;;1.40;100.00;160937.19;5007087;28;20013;-56
2022/04/18 04:27:46;;;;;;;33.47;20.77;;;;;;;1.39;100.00;160934.50;5008589;28;20099;-55
2022/04/18 04:30:12;;;;;;;24.55;18.10;;;;;;;1.38;100.00;160931.78;5012069;28;20018;-56
2022/04/18 04:32:37;;;;;;;26.25;18.00;;;;;;;1.36;100.00;160927.78;5008939;28;20099;-56
2022/04/18 04:35:03;;;;;;;30.75;18.67;;;;;;;1.30;100.00;160910.38;5011576;28;20029;-56
2022/04/18 04:37:28;;;;;;;29.85;19.35;;;;;;;1.34;100.00;160921.09;5008657;28;20049;-56
2022/04/18 04:39:54;;;;;;;25.13;19.85;;;;;;;1.35;100.00;160923.78;5011617;28;20025;-56
2022/04/18 04:42:19;;;;;;;32.22;23.15;;;;;;;1.41;100.00;160939.88;5009377;28;20619;-56
2022/04/18 04:44:45;;;;;;;38.38;23.98;;;;;;;1.40;100.00;160937.19;5011803;28;20037;-56
2022/04/18 04:47:11;;;;;;;35.80;22.63;;;;;;;1.38;100.00;160931.78;5021692;28;20045;-56
2022/04/18 04:49:37;;;;;;;31.58;20.55;;;;;;;1.40;100.00;160938.53;5017758;28;20374;-56
2022/04/18 04:52:04;;;;;;;41.60;23.80;;;;;;;1.43;100.00;160945.25;5020917;28;20106;-56
2022/04/18 04:54:29;;;;;;;48.45;28.30;;;;;;;1.41;100.00;160939.88;5030539;28;20028;-56
2022/04/18 04:56:54;;;;;;;43.67;30.05;;;;;;;1.38;100.00;160931.78;5029212;28;20041;-52
2022/04/18 04:59:20;;;;;;;45.05;25.02;;;;;;;1.41;100.00;160939.88;5031191;28;20033;-53
2022/04/18 05:01:45;;;;;;;41.28;23.65;;;;;;;1.37;100.00;160930.47;5027831;28;20049;-52
2022/04/18 05:04:11;;;;;;;32.38;21.88;;;;;;;1.36;100.00;160926.47;5030586;28;20396;-54
2022/04/18 05:06:36;;;;;;;39.85;22.58;;;;;;;1.38;100.00;160931.78;5020982;28;20037;-53
2022/04/18 05:09:02;;;;;;;27.90;20.38;;;;;;;1.40;100.00;160938.53;5010539;28;20030;-54
2022/04/18 05:11:27;;;;;;;36.63;21.80;;;;;;;1.44;100.00;160947.94;5008338;28;20145;-54
2022/04/18 05:13:53;;;;;;;32.42;21.98;;;;;;;1.50;100.00;160964.03;5010153;28;20030;-53
2022/04/18 05:16:18;;;;;;;32.28;21.00;;;;;;;1.60;100.00;160988.19;5008738;28;20046;-53
2022/04/18 05:18:44;;;;;;;36.22;24.08;;;;;;;1.71;100.00;161017.69;5011173;28;20026;-55
2022/04/18 05:21:10;;;;;;;45.92;28.40;;;;;;;1.77;100.00;161033.78;5009382;28;20041;-54
2022/04/18 05:23:36;;;;;;;40.25;26.20;;;;;;;1.81;100.00;161044.53;5009899;28;20106;-53
2022/04/18 05:26:01;;;;;;;35.58;23.30;;;;;;;1.79;100.00;161039.16;5010126;28;20056;-53
2022/04/18 05:28:26;;;;;;;38.00;25.65;;;;;;;1.78;100.00;161036.47;5010863;28;20080;-53
2022/04/18 05:30:52;;;;;;;39.03;24.35;;;;;;;1.80;100.00;161041.84;5009207;28;20026;-55
2022/04/18 05:33:18;;;;;;;34.47;24.30;;;;;;;1.86;100.00;161057.94;5011279;28;20030;-53
2022/04/18 05:35:43;;;;;;;30.27;21.02;;;;;;;1.96;100.00;161082.09;5009636;28;20050;-54
2022/04/18 05:38:09;;;;;;;34.17;24.15;;;;;;;2.06;100.00;161108.91;5010230;28;20056;-55
2022/04/18 05:40:34;;;;;;;33.92;21.45;;;;;;;2.18;100.00;161141.16;5010833;28;20034;-53
2022/04/18 05:43:02;;;;;;;30.73;20.92;;;;;;;2.28;100.00;161165.28;5009698;28;20080;-54
2022/04/18 05:45:28;;;;;;;28.25;18.35;;;;;;;2.42;100.00;161202.88;5010077;28;20445;-53
2022/04/18 05:47:53;;;;;;;31.95;19.70;;;;;;;2.55;100.00;161236.44;5009299;28;20100;-53
2022/04/18 05:50:19;;;;;;;27.88;18.83;;;;;;;2.73;100.00;161283.44;5010080;28;20496;-54
2022/04/18 05:52:46;;;;;;;30.50;19.45;;;;;;;2.94;100.00;161338.50;5004350;28;20413;-53
2022/04/18 05:55:11;;;;;;;25.48;18.00;;;;;;;3.18;100.00;161400.28;5009876;28;20036;-54
2022/04/18 05:57:36;;;;;;;33.05;19.27;;;;;;;3.46;100.00;161474.13;5007595;28;20038;-52
2022/04/18 06:00:04;;;;;;;25.00;17.77;;;;;;;3.74;100.00;161545.34;5008784;28;20046;-54
2022/04/18 06:02:29;;;;;;;37.88;20.65;;;;;;;4.02;100.00;161619.28;5004373;28;20413;-54
2022/04/18 06:04:54;;;;;;;27.80;19.30;;;;;;;4.29;100.00;161689.16;5009241;28;20029;-53
2022/04/18 06:07:20;;;;;;;42.97;20.67;;;;;;;4.56;100.00;161760.41;5007576;28;20411;-53
2022/04/18 06:09:45;;;;;;;43.33;21.35;;;;;;;4.81;100.00;161823.59;5009863;28;20030;-55
2022/04/18 06:12:10;;;;;;;32.70;22.35;;;;;;;5.04;100.00;161885.47;5008997;28;20049;-54
2022/04/18 06:14:36;;;;;;;33.08;18.27;;;;;;;5.25;100.00;161939.25;5000078;28;20466;-54
2022/04/18 06:17:01;;;;;;;31.77;18.77;;;;;;;5.49;100.00;162002.50;4989318;28;20046;-55
2022/04/18 06:19:27;;;;;;;36.40;19.70;;;;;;;5.71;100.00;162060.34;4990469;28;20023;-53
2022/04/18 06:21:52;;;;;;;34.53;20.33;;;;;;;5.95;100.00;162122.25;4988652;28;20525;-54
2022/04/18 06:24:18;;;;;;;48.42;22.83;;;;;;;6.18;100.00;162181.50;5012671;28;20025;-54
2022/04/18 06:26:43;;;;;;;31.05;19.05;;;;;;;6.40;100.00;162238.03;5011258;28;20061;-53
2022/04/18 06:29:09;;;;;;;23.63;17.60;;;;;;;6.61;100.00;162294.56;5011000;28;20042;-54
2022/04/18 06:31:34;;;;;;;25.63;16.88;;;;;;;6.79;100.00;162341.69;5011293;28;20524;-54
2022/04/18 06:33:59;;;;;;;27.75;15.93;;;;;;;6.99;100.00;162392.91;5012072;28;20397;-54
2022/04/18 06:36:25;;;;;;;31.20;16.80;;;;;;;7.24;100.00;162458.88;5011192;28;20045;-54
2022/04/18 06:38:50;;;;;;;25.83;14.32;;;;;;;7.47;100.00;162518.16;5012478;28;20040;-54
2022/04/18 06:41:15;;;;;;;27.63;16.25;;;;;;;7.74;100.00;162588.19;5011794;28;20033;-54
2022/04/18 06:43:41;;;;;;;22.80;17.95;;;;;;;7.92;100.00;162636.72;5012942;28;20033;-52
2022/04/18 06:46:06;;;;;;;26.30;14.68;;;;;;;8.09;100.00;162681.19;5010647;28;20042;-52
2022/04/18 06:48:31;;;;;;;19.17;11.07;;;;;;;8.37;100.00;162752.63;5013081;28;20022;-54
2022/04/18 06:50:57;;;;;;;19.10;10.15;;;;;;;8.65;100.00;162826.78;5011679;28;20038;-53
2022/04/18 06:53:22;;;;;;;17.13;9.55;;;;;;;8.88;100.00;162887.47;5011300;28;20096;-54
2022/04/18 06:58:31;;;;;;;16.20;10.00;;;;;;;9.46;100.00;163038.50;5003401;28;20092;-54
2022/04/18 07:00:56;;;;;;;15.75;9.27;;;;;;;9.77;100.00;163119.44;5010298;28;20053;-53
2022/04/18 07:03:22;;;;;;;14.30;10.88;;;;;;;10.12;100.00;163211.19;5012828;28;20025;-53
2022/04/18 07:05:48;;;;;;;17.52;10.00;;;;;;;10.74;100.00;163373.22;5010373;28;20029;-53
2022/04/18 07:08:13;;;;;;;12.75;8.15;;;;;;;11.20;100.00;163492.03;5010673;28;20528;-52
2022/04/18 07:10:39;;;;;;;21.50;9.40;;;;;;;12.12;97.58;163732.47;5010804;28;20026;-53
2022/04/18 07:13:04;;;;;;;9.60;7.38;;;;;;;13.29;89.70;164040.59;5012450;28;20469;-53
2022/04/18 07:15:30;;;;;;;12.77;7.30;;;;;;;14.71;84.03;164411.31;5010355;28;20469;-53
2022/04/18 07:17:55;;;;;;;10.38;6.75;;;;;;;16.08;73.73;164771.47;5010913;28;20463;-52
2022/04/18 07:20:20;;;;;;;10.25;7.43;;;;;;;17.11;72.09;165042.44;5012189;28;20030;-54
2022/04/18 07:22:46;;;;;;;7.75;5.57;;;;;;;17.82;64.22;165226.78;5009978;28;20034;-53
2022/04/18 07:25:11;;;;;;;11.60;7.05;;;;;;;17.66;56.74;165186.13;5012673;28;20436;-53
2022/04/18 07:27:37;;;;;;;10.70;5.68;;;;;;;18.29;55.00;165351.53;5011049;28;20064;-54
2022/04/18 07:30:03;;;;;;;14.82;10.27;;;;;;;18.29;56.74;165351.53;5010778;28;20026;-54
2022/04/18 07:32:29;;;;;;;13.32;7.30;;;;;;;18.52;54.59;165412.59;5010687;28;20041;-54
2022/04/18 07:34:54;;;;;;;8.15;6.57;;;;;;;18.63;54.26;165439.66;5011508;28;20397;-54
2022/04/18 07:37:20;;;;;;;9.85;7.18;;;;;;;18.55;57.56;165420.69;5008983;28;20050;-54
2022/04/18 07:39:45;;;;;;;10.05;6.53;;;;;;;18.73;57.31;165465.47;5011791;28;20022;-54
2022/04/18 07:42:10;;;;;;;7.40;5.80;;;;;;;18.90;53.91;165511.56;5010913;28;20460;-54
2022/04/18 07:44:36;;;;;;;10.60;7.05;;;;;;;18.57;53.95;165423.41;5010716;28;20022;-54
2022/04/18 07:47:01;;;;;;;14.45;7.05;;;;;;;18.34;51.69;165363.75;5010755;28;20050;-53
2022/04/18 07:49:26;;;;;;;10.60;7.15;;;;;;;18.46;54.62;165394.94;5012117;28;20037;-53
2022/04/18 07:51:52;;;;;;;8.02;5.40;;;;;;;17.87;56.24;165241.66;5009518;28;20034;-53
2022/04/18 07:54:20;;;;;;;8.30;6.13;;;;;;;18.21;57.25;165329.84;5011596;28;20390;-53
2022/04/18 07:56:45;;;;;;;8.30;6.18;;;;;;;18.87;56.99;165503.47;5010588;28;20103;-54
2022/04/18 07:59:11;;;;;;;8.45;5.97;;;;;;;18.99;54.74;165536.03;5010228;28;20477;-53
2022/04/18 08:01:36;;;;;;;10.93;6.93;;;;;;;18.62;53.31;165438.34;5009808;28;20050;-55
2022/04/18 08:04:04;;;;;;;9.68;6.82;;;;;;;18.64;52.42;165442.41;5011909;28;20064;-55
2022/04/18 08:06:30;;;;;;;8.60;7.28;;;;;;;18.63;51.87;165441.06;5009358;28;20516;-55
2022/04/18 08:08:55;;;;;;;11.45;6.43;;;;;;;19.09;53.16;165561.81;5011479;28;20030;-55
2022/04/18 08:11:21;;;;;;;9.43;7.13;;;;;;;18.67;50.91;165451.88;5010412;28;20041;-54
2022/04/18 08:13:48;;;;;;;12.40;6.85;;;;;;;19.41;53.86;165645.94;5011351;28;20058;-54
2022/04/18 08:16:14;;;;;;;8.88;5.75;;;;;;;19.37;53.34;165635.03;5010211;28;20117;-55
2022/04/18 08:18:42;;;;;;;6.72;6.00;;;;;;;19.17;53.55;165582.19;5011570;28;20497;-55
2022/04/18 08:21:07;;;;;;;;;;;;;;;19.11;53.20;165565.84;5010599;28;20042;-55
2022/04/18 08:23:33;;;;;;;10.70;6.40;;;;;;;19.36;53.18;165632.31;5011677;28;19915;-55
2022/04/18 08:25:59;;;;;;;9.20;5.88;;;;;;;19.08;51.53;165557.75;5010629;28;20081;-55
2022/04/18 08:28:26;;;;;;;10.52;6.60;;;;;;;19.37;53.89;165635.03;5010869;28;20546;-54
2022/04/18 08:30:51;;;;;;;8.77;6.15;;;;;;;19.93;51.70;165783.00;5010420;28;20389;-55
2022/04/18 08:33:17;;;;;;;7.47;5.88;;;;;;;19.97;50.89;165793.88;5011442;28;20022;-55
2022/04/18 08:35:42;;;;;;;18.15;6.95;;;;;;;20.01;50.52;165802.00;5009768;28;20065;-55
2022/04/18 08:38:07;;;;;;;9.52;5.25;;;;;;;19.68;50.30;165715.13;5011730;28;20041;-55
2022/04/18 08:40:34;;;;;;;13.55;6.18;;;;;;;19.81;52.72;165750.41;5010973;28;20037;-55
2022/04/18 08:42:59;;;;;;;6.50;5.38;;;;;;;20.31;50.59;165880.72;5009801;28;20124;-55
2022/04/18 08:45:26;;;;;;;11.73;7.10;;;;;;;20.31;48.25;165882.09;5010193;28;20034;-56
2022/04/18 08:53:31;;;;;;;8.40;5.82;;;;;;;21.51;49.75;166198.50;4993992;28;20068;-55
2022/04/18 08:55:59;;;;;;;8.63;5.38;;;;;;;21.08;47.14;166084.44;5005729;28;20048;-55
2022/04/18 08:58:26;;;;;;;;;;;;;;;20.62;47.40;165963.56;5009008;28;20037;-54
2022/04/18 09:00:53;;;;;;;7.55;5.13;;;;;;;20.69;52.01;165982.56;5009177;28;20015;-53
2022/04/18 09:03:19;;;;;;;7.53;5.25;;;;;;;20.65;50.70;165971.69;5010640;28;20041;-53
2022/04/18 09:05:44;;;;;;;6.50;4.55;;;;;;;19.99;50.51;165796.59;5008783;28;20536;-53
2022/04/18 09:08:11;;;;;;;6.45;4.82;;;;;;;19.85;49.65;165759.94;5010860;28;20079;-54
2022/04/18 09:10:37;;;;;;;8.77;4.68;;;;;;;19.94;54.14;165785.72;5010855;28;20803;-53
2022/04/18 09:13:10;;;;;;;11.10;5.22;;;;;;;19.71;53.57;165723.25;5029147;28;20029;-53
2022/04/18 09:15:48;;;;;;;8.38;4.55;;;;;;;20.02;49.89;165804.72;5013375;28;20065;-54
2022/04/18 09:18:17;;;;;;;36.65;6.47;;;;;;;20.29;47.98;165876.66;5018411;28;20045;-53
2022/04/18 09:20:51;;;;;;;9.00;5.93;;;;;;;20.22;50.75;165859.00;5028127;28;20037;-54
2022/04/18 09:23:42;;;;;;;8.00;4.38;;;;;;;20.57;47.04;165951.34;5030660;28;20028;-53
2022/04/18 09:26:08;;;;;;;6.10;4.95;;;;;;;20.61;45.26;165962.19;5026984;28;20045;-53
2022/04/18 09:28:40;;;;;;;7.00;4.10;;;;;;;20.77;46.47;166002.97;5030040;28;20025;-53
2022/04/18 09:31:10;;;;;;;7.50;4.38;;;;;;;21.02;45.82;166068.16;5028992;28;20048;-54
2022/04/18 09:33:46;;;;;;;7.13;3.90;;;;;;;20.87;45.60;166030.13;5030439;28;20039;-54
2022/04/18 09:36:15;;;;;;;6.22;5.60;;;;;;;21.28;52.13;166137.41;5028767;28;20045;-53
2022/04/18 09:38:44;;;;;;;10.00;5.40;;;;;;;20.78;44.35;166005.69;5030326;28;20030;-54
2022/04/18 09:41:15;;;;;;;7.90;4.70;;;;;;;20.98;45.05;166058.66;5028726;28;20065;-53
2022/04/18 09:43:52;;;;;;;5.63;4.25;;;;;;;21.42;47.42;166174.03;5029644;28;20112;-53
2022/04/18 09:46:18;;;;;;;6.30;4.28;;;;;;;21.23;44.59;166125.19;5028953;28;20045;-54
2022/04/18 09:48:45;;;;;;;7.55;5.57;;;;;;;21.06;40.10;166079.00;5030215;28;20358;-53
2022/04/18 09:51:27;;;;;;;6.15;4.60;;;;;;;21.69;42.08;166244.75;5029181;28;20112;-53
2022/04/18 09:53:54;;;;;;;5.57;4.75;;;;;;;22.88;42.74;166557.31;5030321;28;20071;-53
2022/04/18 09:56:21;;;;;;;4.47;4.07;;;;;;;23.29;40.97;166666.09;5028384;28;20183;-53
2022/04/18 09:58:47;;;;;;;5.22;4.32;;;;;;;23.22;44.49;166648.44;5034024;28;20409;-53
2022/04/18 10:01:13;;;;;;;18.05;6.93;;;;;;;22.95;43.62;166576.34;5032517;28;20038;-53
2022/04/18 10:03:41;;;;;;;10.13;5.13;;;;;;;23.37;38.50;166686.50;5033590;28;20029;-53
2022/04/18 10:06:07;;;;;;;8.27;5.13;;;;;;;23.39;39.92;166693.28;5032483;28;20727;-53
2022/04/18 10:08:34;;;;;;;5.60;4.68;;;;;;;23.75;39.79;166788.44;5034020;28;20029;-54
2022/04/18 10:11:02;;;;;;;5.50;4.25;;;;;;;23.60;39.54;166747.66;5032535;28;20113;-53
2022/04/18 10:13:29;;;;;;;4.78;4.20;;;;;;;22.69;37.08;166507.03;5034044;28;20036;-53
2022/04/18 10:15:58;;;;;;;4.53;3.88;;;;;;;23.08;41.42;166611.66;5032111;28;20037;-53
2022/04/18 10:18:23;;;;;;;7.78;4.47;;;;;;;22.92;42.12;166568.16;5033515;28;20025;-53
2022/04/18 10:21:07;;;;;;;5.40;4.63;;;;;;;23.26;40.43;166657.94;5032201;28;20558;-54
2022/04/18 10:23:53;;;;;;;3.60;3.30;;;;;;;23.53;41.29;166728.63;5033750;28;20029;-53
2022/04/18 10:26:34;;;;;;;7.70;4.40;;;;;;;23.71;37.90;166777.59;5030033;28;20409;-53
2022/04/18 10:29:09;;;;;;;5.72;5.10;;;;;;;22.54;39.79;166468.97;5033947;28;20037;-53
2022/04/18 10:31:39;;;;;;;8.95;4.82;;;;;;;22.52;42.68;166462.19;5031757;28;20040;-53
2022/04/18 10:34:05;;;;;;;6.65;5.00;;;;;;;23.70;36.72;166774.88;5033473;28;20054;-53
2022/04/18 10:36:31;;;;;;;5.68;4.18;;;;;;;23.29;41.48;166666.09;5031636;28;20049;-53
2022/04/18 10:39:00;;;;;;;7.78;4.43;;;;;;;23.10;40.15;166617.13;5033418;28;20029;-53
2022/04/18 10:41:37;;;;;;;7.10;4.53;;;;;;;23.00;41.89;166589.91;5031097;28;20623;-53
2022/04/18 10:44:07;;;;;;;3.47;3.10;;;;;;;22.67;44.26;166502.97;5033069;28;20037;-53
2022/04/18 10:46:34;;;;;;;4.57;3.95;;;;;;;22.43;40.23;166440.44;5031854;28;20045;-54
2022/04/18 10:49:12;;;;;;;4.95;4.20;;;;;;;21.99;35.75;166323.53;5032869;28;20026;-53
2022/04/18 10:51:39;;;;;;;7.30;3.45;;;;;;;21.86;37.08;166289.56;5031552;28;20042;-53
2022/04/18 10:54:21;;;;;;;5.67;4.23;;;;;;;21.32;39.61;166148.25;5033128;28;20021;-54
2022/04/18 10:56:52;;;;;;;4.75;4.30;;;;;;;21.27;42.00;166133.31;5030912;28;20041;-53
2022/04/18 10:59:26;;;;;;;5.63;4.78;;;;;;;21.20;39.64;166117.00;5033040;28;20083;-54
2022/04/18 11:01:53;;;;;;;7.35;4.22;;;;;;;21.65;35.72;166235.25;5031393;28;20055;-53
2022/04/18 11:04:26;;;;;;;4.63;4.22;;;;;;;21.71;37.46;166250.16;5032227;28;20036;-54
2022/04/18 11:06:58;;;;;;;5.97;4.38;;;;;;;21.78;39.05;166267.84;5027774;28;20048;-53
2022/04/18 11:09:25;;;;;;;6.93;4.90;;;;;;;21.68;37.76;166242.03;5031422;28;20054;-54
2022/04/18 11:11:55;;;;;;;5.63;4.72;;;;;;;21.49;40.06;166193.06;5030975;28;20125;-54
2022/04/18 11:14:31;;;;;;;5.03;4.40;;;;;;;21.90;43.09;166299.09;5032997;28;20029;-54
2022/04/18 11:17:02;;;;;;;5.80;5.22;;;;;;;21.72;36.33;166252.88;5031444;28;20066;-54
2022/04/18 11:19:41;;;;;;;6.45;4.78;;;;;;;21.17;40.67;166108.91;5032180;28;20025;-54
2022/04/18 11:22:17;;;;;;;5.85;4.28;;;;;;;21.44;38.06;166179.50;5030830;28;20430;-54
2022/04/18 11:24:49;;;;;;;5.90;4.70;;;;;;;21.72;39.28;166252.88;5032928;28;20108;-54
2022/04/18 11:27:22;;;;;;;4.95;2.97;;;;;;;21.46;40.51;166184.94;5030690;28;20686;-53
2022/04/18 11:29:54;;;;;;;4.32;3.78;;;;;;;21.20;38.44;166117.00;5032602;28;20040;-53
2022/04/18 11:32:28;;;;;;;5.20;3.40;;;;;;;20.61;40.93;165962.19;5030661;28;20045;-54
2022/04/18 11:34:56;;;;;;;5.47;4.55;;;;;;;20.39;39.61;165903.84;5032464;28;20029;-53